This is the latest recevied weather packets stored in our database for station/object KM4CBK. If no packets are shown the sender has not sent any weather packets the latest 10 day(s).
| Time | Temp. | Humidity | Pressure | Rain* | Wind** | Luminosity | Snow |
|---|---|---|---|---|---|---|---|
| 1777927614 | 27.78° C | 35% | 1012.9 hPa | 0 mm | - | 280 W/m² | - |
| 1777927313 | 27.78° C | 36% | 1012.8 hPa | 0 mm | - | 300 W/m² | - |
| 1777927011 | 27.78° C | 36% | 1013 hPa | 0 mm | - | 533 W/m² | - |
| 1777926709 | 27.78° C | 37% | 1013 hPa | 0 mm | - | 491 W/m² | - |
| 1777926403 | 27.78° C | 36% | 1013 hPa | 0 mm | - | 480 W/m² | - |
| 1777926100 | 27.78° C | 36% | 1013.3 hPa | 0 mm | - | 503 W/m² | - |
| 1777925797 | 27.22° C | 36% | 1013.2 hPa | 0 mm | - | 554 W/m² | - |
| 1777925495 | 27.78° C | 38% | 1013.3 hPa | 0 mm | - | 500 W/m² | - |
| 1777925192 | 27.78° C | 37% | 1013.3 hPa | 0 mm | - | 515 W/m² | - |
| 1777924888 | 27.78° C | 36% | 1013.7 hPa | 0 mm | - | 593 W/m² | - |
| 1777924584 | 27.78° C | 38% | 1013.5 hPa | 0 mm | - | 532 W/m² | - |
| 1777924281 | 27.78° C | 36% | 1013.8 hPa | 0 mm | - | 592 W/m² | - |
| 1777923978 | 27.22° C | 38% | 1013.7 hPa | 0 mm | - | 609 W/m² | - |
| 1777923673 | 27.78° C | 37% | 1013.9 hPa | 0 mm | - | 618 W/m² | - |
| 1777923370 | 27.78° C | 39% | 1014 hPa | 0 mm | - | 601 W/m² | - |
| 1777923068 | 27.22° C | 40% | 1013.7 hPa | 0 mm | - | 610 W/m² | - |
| 1777922766 | 27.22° C | 38% | 1014.1 hPa | 0 mm | - | 620 W/m² | - |
| 1777922464 | 27.22° C | 38% | 1014.3 hPa | 0 mm | - | 503 W/m² | - |
| 1777922162 | 27.78° C | 39% | 1014 hPa | 0 mm | - | 569 W/m² | - |
| 1777921858 | 27.22° C | 39% | 1014.4 hPa | 0 mm | - | 612 W/m² | - |
| 1777921554 | 28.33° C | 36% | 1014.6 hPa | 0 mm | - | 499 W/m² | - |
| 1777921250 | 27.78° C | 38% | 1014.4 hPa | 0 mm | - | 574 W/m² | - |
| 1777920948 | 27.78° C | 35% | 1014.6 hPa | 0 mm | - | 548 W/m² | - |
| 1777920644 | 27.78° C | 37% | 1014.7 hPa | 0 mm | - | 648 W/m² | - |
| 1777920339 | 26.67° C | 40% | 1014.6 hPa | 0 mm | - | 619 W/m² | - |
* Rain latest hour (hover to see other rain measurements)
** Current wind speed in m/s (hover to see current wind gust speed)